sensor_id;sensor_type;location;lat;lon;timestamp;pressure;altitude;pressure_sealevel;temperature;humidity
15260;BME280;34462;51.368;12.364;2023-04-20T00:02:19;19159.47;;;-141.84;82.93
15260;BME280;34462;51.368;12.364;2023-04-20T00:04:47;19120.88;;;-141.84;81.93
15260;BME280;34462;51.368;12.364;2023-04-20T00:07:15;19122.91;;;-141.84;81.60
15260;BME280;34462;51.368;12.364;2023-04-20T00:09:43;19147.28;;;-141.84;81.27
15260;BME280;34462;51.368;12.364;2023-04-20T00:12:13;19120.88;;;-141.84;80.76
15260;BME280;34462;51.368;12.364;2023-04-20T00:14:41;19157.44;;;-141.84;81.55
15260;BME280;34462;51.368;12.364;2023-04-20T00:17:09;19131.03;;;-141.84;81.68
15260;BME280;34462;51.368;12.364;2023-04-20T00:19:37;19092.41;;;-141.84;82.41
15260;BME280;34462;51.368;12.364;2023-04-20T00:22:06;19122.91;;;-141.84;82.47
15260;BME280;34462;51.368;12.364;2023-04-20T00:24:34;19161.50;;;-141.84;82.17
15260;BME280;34462;51.368;12.364;2023-04-20T00:27:02;19122.91;;;-141.84;82.08
15260;BME280;34462;51.368;12.364;2023-04-20T00:29:32;19141.19;;;-141.84;82.66
15260;BME280;34462;51.368;12.364;2023-04-20T00:32:01;19149.31;;;-141.84;82.34
15260;BME280;34462;51.368;12.364;2023-04-20T00:34:29;19120.88;;;-141.84;81.59
15260;BME280;34462;51.368;12.364;2023-04-20T00:36:57;19153.38;;;-141.84;82.00
15260;BME280;34462;51.368;12.364;2023-04-20T00:39:25;19151.34;;;-141.84;82.37
15260;BME280;34462;51.368;12.364;2023-04-20T00:41:53;19126.97;;;-141.84;82.28
15260;BME280;34462;51.368;12.364;2023-04-20T00:44:22;19143.22;;;-141.84;81.97
15260;BME280;34462;51.368;12.364;2023-04-20T00:46:51;19118.84;;;-141.84;81.71
15260;BME280;34462;51.368;12.364;2023-04-20T00:49:24;19131.03;;;-141.84;82.68
15260;BME280;34462;51.368;12.364;2023-04-20T00:51:54;19124.94;;;-141.84;83.17
15260;BME280;34462;51.368;12.364;2023-04-20T00:54:22;19122.91;;;-141.84;83.25
15260;BME280;34462;51.368;12.364;2023-04-20T00:56:53;19112.75;;;-141.84;83.03
15260;BME280;34462;51.368;12.364;2023-04-20T00:59:23;19133.06;;;-141.84;82.31
15260;BME280;34462;51.368;12.364;2023-04-20T01:01:53;19143.22;;;-141.84;81.93
15260;BME280;34462;51.368;12.364;2023-04-20T01:04:22;19153.38;;;-141.84;82.27
15260;BME280;34462;51.368;12.364;2023-04-20T01:06:50;19141.19;;;-141.84;81.90
15260;BME280;34462;51.368;12.364;2023-04-20T01:09:19;19143.22;;;-141.84;82.39
15260;BME280;34462;51.368;12.364;2023-04-20T01:11:48;19135.09;;;-141.84;82.43
15260;BME280;34462;51.368;12.364;2023-04-20T01:14:16;19114.78;;;-141.84;82.17
15260;BME280;34462;51.368;12.364;2023-04-20T01:16:44;19163.53;;;-141.84;82.34
15260;BME280;34462;51.368;12.364;2023-04-20T01:19:14;19151.34;;;-141.84;82.57
15260;BME280;34462;51.368;12.364;2023-04-20T01:21:43;19120.88;;;-141.84;82.47
15260;BME280;34462;51.368;12.364;2023-04-20T01:24:12;19126.97;;;-141.84;82.83
15260;BME280;34462;51.368;12.364;2023-04-20T01:26:40;19124.94;;;-141.84;82.99
15260;BME280;34462;51.368;12.364;2023-04-20T01:29:08;19139.16;;;-141.84;82.90
15260;BME280;34462;51.368;12.364;2023-04-20T01:31:37;19122.91;;;-141.84;82.27
15260;BME280;34462;51.368;12.364;2023-04-20T01:34:05;19118.84;;;-141.84;81.99
15260;BME280;34462;51.368;12.364;2023-04-20T01:36:33;19135.09;;;-141.84;81.78
15260;BME280;34462;51.368;12.364;2023-04-20T01:39:01;19135.09;;;-141.84;81.47
15260;BME280;34462;51.368;12.364;2023-04-20T01:41:31;19139.16;;;-141.84;81.57
15260;BME280;34462;51.368;12.364;2023-04-20T01:43:59;19139.16;;;-141.84;81.77
15260;BME280;34462;51.368;12.364;2023-04-20T01:46:27;19114.78;;;-141.84;82.41
15260;BME280;34462;51.368;12.364;2023-04-20T01:48:55;19122.91;;;-141.84;82.21
15260;BME280;34462;51.368;12.364;2023-04-20T01:51:23;19139.16;;;-141.84;81.84
15260;BME280;34462;51.368;12.364;2023-04-20T01:53:51;19118.84;;;-141.84;81.37
15260;BME280;34462;51.368;12.364;2023-04-20T01:56:20;19118.84;;;-141.84;81.84
15260;BME280;34462;51.368;12.364;2023-04-20T01:58:49;19084.28;;;-141.84;82.28
15260;BME280;34462;51.368;12.364;2023-04-20T02:01:17;19141.19;;;-141.84;82.30
15260;BME280;34462;51.368;12.364;2023-04-20T02:03:47;19110.72;;;-141.84;82.88
15260;BME280;34462;51.368;12.364;2023-04-20T02:06:16;19157.44;;;-141.84;82.97
15260;BME280;34462;51.368;12.364;2023-04-20T02:08:44;19084.28;;;-141.84;82.90
15260;BME280;34462;51.368;12.364;2023-04-20T02:11:12;19112.75;;;-141.84;83.82
15260;BME280;34462;51.368;12.364;2023-04-20T02:13:41;19141.19;;;-141.84;83.71
15260;BME280;34462;51.368;12.364;2023-04-20T02:16:10;19102.56;;;-141.84;83.15
15260;BME280;34462;51.368;12.364;2023-04-20T02:18:38;19112.75;;;-141.84;83.29
15260;BME280;34462;51.368;12.364;2023-04-20T02:21:06;19137.13;;;-141.84;82.97
15260;BME280;34462;51.368;12.364;2023-04-20T02:23:35;19100.53;;;-141.84;82.67
15260;BME280;34462;51.368;12.364;2023-04-20T02:26:03;19141.19;;;-141.84;82.12
15260;BME280;34462;51.368;12.364;2023-04-20T02:28:31;19149.31;;;-141.84;82.12
15260;BME280;34462;51.368;12.364;2023-04-20T02:30:59;19106.66;;;-141.84;82.67
15260;BME280;34462;51.368;12.364;2023-04-20T02:33:30;19106.66;;;-141.84;83.73
15260;BME280;34462;51.368;12.364;2023-04-20T02:35:58;19088.34;;;-141.84;84.06
15260;BME280;34462;51.368;12.364;2023-04-20T02:38:26;19090.38;;;-141.84;83.91
15260;BME280;34462;51.368;12.364;2023-04-20T02:40:54;19106.66;;;-141.84;84.18
15260;BME280;34462;51.368;12.364;2023-04-20T02:43:22;19098.50;;;-141.84;83.77
15260;BME280;34462;51.368;12.364;2023-04-20T02:45:51;19090.38;;;-141.84;83.99
15260;BME280;34462;51.368;12.364;2023-04-20T02:48:19;19116.81;;;-141.84;83.54
15260;BME280;34462;51.368;12.364;2023-04-20T02:50:49;19118.84;;;-141.84;83.74
15260;BME280;34462;51.368;12.364;2023-04-20T02:53:17;19094.44;;;-141.84;83.92
15260;BME280;34462;51.368;12.364;2023-04-20T02:55:45;19118.84;;;-141.84;84.35
15260;BME280;34462;51.368;12.364;2023-04-20T02:58:13;19086.31;;;-141.84;84.17
15260;BME280;34462;51.368;12.364;2023-04-20T03:00:43;19106.66;;;-141.84;83.79
15260;BME280;34462;51.368;12.364;2023-04-20T03:03:11;19094.44;;;-141.84;84.39
15260;BME280;34462;51.368;12.364;2023-04-20T03:05:40;19145.25;;;-141.84;83.34
15260;BME280;34462;51.368;12.364;2023-04-20T03:08:10;19102.56;;;-141.84;82.67
15260;BME280;34462;51.368;12.364;2023-04-20T03:10:38;19108.69;;;-141.84;82.88
15260;BME280;34462;51.368;12.364;2023-04-20T03:13:06;19092.41;;;-141.84;83.29
15260;BME280;34462;51.368;12.364;2023-04-20T03:15:35;19118.84;;;-141.84;83.28
15260;BME280;34462;51.368;12.364;2023-04-20T03:18:05;19118.84;;;-141.84;83.47
15260;BME280;34462;51.368;12.364;2023-04-20T03:20:33;19080.22;;;-141.84;82.85
15260;BME280;34462;51.368;12.364;2023-04-20T03:23:01;19118.84;;;-141.84;82.82
15260;BME280;34462;51.368;12.364;2023-04-20T03:25:31;19131.03;;;-141.84;82.81
15260;BME280;34462;51.368;12.364;2023-04-20T03:27:59;19102.56;;;-141.84;82.23
15260;BME280;34462;51.368;12.364;2023-04-20T03:30:27;19110.72;;;-141.84;82.31
15260;BME280;34462;51.368;12.364;2023-04-20T03:32:56;19112.75;;;-141.84;82.69
15260;BME280;34462;51.368;12.364;2023-04-20T03:35:24;19118.84;;;-141.84;82.72
15260;BME280;34462;51.368;12.364;2023-04-20T03:37:52;19126.97;;;-141.84;81.93
15260;BME280;34462;51.368;12.364;2023-04-20T03:40:21;19098.50;;;-141.84;81.27
15260;BME280;34462;51.368;12.364;2023-04-20T03:42:50;19092.41;;;-141.84;82.02
15260;BME280;34462;51.368;12.364;2023-04-20T03:45:19;19133.06;;;-141.84;81.71
15260;BME280;34462;51.368;12.364;2023-04-20T03:47:47;19129.00;;;-141.84;81.57
15260;BME280;34462;51.368;12.364;2023-04-20T03:50:15;19112.75;;;-141.84;81.43
15260;BME280;34462;51.368;12.364;2023-04-20T03:52:43;19129.00;;;-141.84;80.52
15260;BME280;34462;51.368;12.364;2023-04-20T03:55:11;19129.00;;;-141.84;81.24
15260;BME280;34462;51.368;12.364;2023-04-20T03:57:40;19143.22;;;-141.84;81.83
15260;BME280;34462;51.368;12.364;2023-04-20T04:00:11;19143.22;;;-141.84;81.14
15260;BME280;34462;51.368;12.364;2023-04-20T04:02:39;19098.50;;;-141.84;80.88
15260;BME280;34462;51.368;12.364;2023-04-20T04:05:08;19110.72;;;-141.84;81.61
15260;BME280;34462;51.368;12.364;2023-04-20T04:07:36;19118.84;;;-141.84;81.57
15260;BME280;34462;51.368;12.364;2023-04-20T04:10:07;19167.59;;;-141.84;80.87
15260;BME280;34462;51.368;12.364;2023-04-20T04:12:36;19135.09;;;-141.84;80.69
15260;BME280;34462;51.368;12.364;2023-04-20T04:15:06;19133.06;;;-141.84;80.44
15260;BME280;34462;51.368;12.364;2023-04-20T04:17:35;19129.00;;;-141.84;80.48
15260;BME280;34462;51.368;12.364;2023-04-20T04:20:05;19100.53;;;-141.84;80.50
15260;BME280;34462;51.368;12.364;2023-04-20T04:22:35;19108.69;;;-141.84;81.66
15260;BME280;34462;51.368;12.364;2023-04-20T04:25:04;19108.69;;;-141.84;81.87
15260;BME280;34462;51.368;12.364;2023-04-20T04:27:33;19100.53;;;-141.84;81.63
15260;BME280;34462;51.368;12.364;2023-04-20T04:30:01;19094.44;;;-141.84;81.91
15260;BME280;34462;51.368;12.364;2023-04-20T04:32:30;19102.56;;;-141.84;82.09
15260;BME280;34462;51.368;12.364;2023-04-20T04:35:01;19118.84;;;-141.84;82.14
15260;BME280;34462;51.368;12.364;2023-04-20T04:37:30;19088.34;;;-141.84;81.75
15260;BME280;34462;51.368;12.364;2023-04-20T04:39:58;19106.66;;;-141.84;81.34
15260;BME280;34462;51.368;12.364;2023-04-20T04:42:30;19143.22;;;-141.84;81.13
15260;BME280;34462;51.368;12.364;2023-04-20T04:44:58;19120.88;;;-141.84;81.11
15260;BME280;34462;51.368;12.364;2023-04-20T04:47:27;19177.75;;;-141.84;80.05
15260;BME280;34462;51.368;12.364;2023-04-20T04:49:56;19169.63;;;-141.84;79.12
15260;BME280;34462;51.368;12.364;2023-04-20T04:52:28;19192.00;;;-141.84;78.49
15260;BME280;34462;51.368;12.364;2023-04-20T04:54:56;19177.75;;;-141.84;79.32
15260;BME280;34462;51.368;12.364;2023-04-20T04:57:25;19141.19;;;-141.84;79.76
15260;BME280;34462;51.368;12.364;2023-04-20T04:59:53;19145.25;;;-141.84;79.61
15260;BME280;34462;51.368;12.364;2023-04-20T05:02:21;19159.47;;;-141.84;79.42
15260;BME280;34462;51.368;12.364;2023-04-20T05:04:50;19139.16;;;-141.84;79.73
15260;BME280;34462;51.368;12.364;2023-04-20T05:07:18;19110.72;;;-141.84;79.06
15260;BME280;34462;51.368;12.364;2023-04-20T05:09:48;19151.34;;;-141.84;79.19
15260;BME280;34462;51.368;12.364;2023-04-20T05:12:16;19145.25;;;-141.84;79.04
15260;BME280;34462;51.368;12.364;2023-04-20T05:14:45;19157.44;;;-141.84;78.99
15260;BME280;34462;51.368;12.364;2023-04-20T05:17:13;19169.63;;;-141.84;79.30
15260;BME280;34462;51.368;12.364;2023-04-20T05:19:41;19192.00;;;-141.84;78.15
15260;BME280;34462;51.368;12.364;2023-04-20T05:22:09;19163.53;;;-141.84;78.15
15260;BME280;34462;51.368;12.364;2023-04-20T05:24:38;19173.69;;;-141.84;78.73
15260;BME280;34462;51.368;12.364;2023-04-20T05:27:07;19185.88;;;-141.84;78.46
15260;BME280;34462;51.368;12.364;2023-04-20T05:29:37;19208.25;;;-141.84;77.80
15260;BME280;34462;51.368;12.364;2023-04-20T05:32:05;19179.78;;;-141.84;77.71
15260;BME280;34462;51.368;12.364;2023-04-20T05:34:34;19169.63;;;-141.84;78.21
15260;BME280;34462;51.368;12.364;2023-04-20T05:37:03;19198.09;;;-141.84;78.48
15260;BME280;34462;51.368;12.364;2023-04-20T05:39:32;19192.00;;;-141.84;78.18
15260;BME280;34462;51.368;12.364;2023-04-20T05:42:00;19175.72;;;-141.84;77.02
15260;BME280;34462;51.368;12.364;2023-04-20T05:44:30;19228.56;;;-141.84;77.64
15260;BME280;34462;51.368;12.364;2023-04-20T05:46:59;19204.19;;;-141.84;76.60
15260;BME280;34462;51.368;12.364;2023-04-20T05:49:27;19204.19;;;-141.84;76.95
15260;BME280;34462;51.368;12.364;2023-04-20T05:51:55;19179.78;;;-141.84;77.02
15260;BME280;34462;51.368;12.364;2023-04-20T05:54:24;19187.91;;;-141.84;78.18
15260;BME280;34462;51.368;12.364;2023-04-20T05:56:54;19228.56;;;-141.84;77.62
15260;BME280;34462;51.368;12.364;2023-04-20T05:59:23;19218.41;;;-141.84;77.29
15260;BME280;34462;51.368;12.364;2023-04-20T06:01:53;19183.84;;;-141.84;76.30
15260;BME280;34462;51.368;12.364;2023-04-20T06:04:22;19248.88;;;-141.84;75.48
15260;BME280;34462;51.368;12.364;2023-04-20T06:06:50;19242.78;;;-141.84;73.89
15260;BME280;34462;51.368;12.364;2023-04-20T06:09:18;19265.13;;;-141.84;72.77
15260;BME280;34462;51.368;12.364;2023-04-20T06:11:47;19265.13;;;-141.84;73.16
15260;BME280;34462;51.368;12.364;2023-04-20T06:14:15;19273.28;;;-141.84;73.66
15260;BME280;34462;51.368;12.364;2023-04-20T06:16:43;19305.78;;;-141.84;71.35
15260;BME280;34462;51.368;12.364;2023-04-20T06:19:13;19291.56;;;-141.84;71.08
15260;BME280;34462;51.368;12.364;2023-04-20T06:21:41;19313.91;;;-141.84;70.67
15260;BME280;34462;51.368;12.364;2023-04-20T06:24:09;19311.88;;;-141.84;71.04
15260;BME280;34462;51.368;12.364;2023-04-20T06:26:38;19362.69;;;-141.84;69.85
15260;BME280;34462;51.368;12.364;2023-04-20T06:29:06;19360.66;;;-141.84;68.93
15260;BME280;34462;51.368;12.364;2023-04-20T06:31:34;19348.47;;;-141.84;68.46
15260;BME280;34462;51.368;12.364;2023-04-20T06:34:02;19334.22;;;-141.84;68.71
15260;BME280;34462;51.368;12.364;2023-04-20T06:36:32;19287.50;;;-141.84;69.81
15260;BME280;34462;51.368;12.364;2023-04-20T06:39:00;19320.00;;;-141.84;70.43
15260;BME280;34462;51.368;12.364;2023-04-20T06:41:28;19263.09;;;-141.84;69.56
15260;BME280;34462;51.368;12.364;2023-04-20T06:43:57;19275.31;;;-141.84;69.69
15260;BME280;34462;51.368;12.364;2023-04-20T06:46:25;19309.84;;;-141.84;70.40
15260;BME280;34462;51.368;12.364;2023-04-20T06:48:53;19348.47;;;-141.84;70.03
15260;BME280;34462;51.368;12.364;2023-04-20T06:51:21;19356.59;;;-141.84;68.41
15260;BME280;34462;51.368;12.364;2023-04-20T06:53:51;19364.72;;;-141.84;68.44
15260;BME280;34462;51.368;12.364;2023-04-20T06:56:20;19374.88;;;-141.84;66.83
15260;BME280;34462;51.368;12.364;2023-04-20T06:58:48;19360.66;;;-141.84;67.78
15260;BME280;34462;51.368;12.364;2023-04-20T07:01:16;19362.69;;;-141.84;67.80
15260;BME280;34462;51.368;12.364;2023-04-20T07:03:45;19391.13;;;-141.84;66.68
15260;BME280;34462;51.368;12.364;2023-04-20T07:06:13;19370.81;;;-141.84;67.12
15260;BME280;34462;51.368;12.364;2023-04-20T07:08:42;19370.81;;;-141.84;67.15
15260;BME280;34462;51.368;12.364;2023-04-20T07:11:12;19399.25;;;-141.84;66.89
15260;BME280;34462;51.368;12.364;2023-04-20T07:13:40;19380.97;;;-141.84;66.51
15260;BME280;34462;51.368;12.364;2023-04-20T07:16:08;19417.56;;;-141.84;66.49
15260;BME280;34462;51.368;12.364;2023-04-20T07:18:37;19427.72;;;-141.84;65.63
15260;BME280;34462;51.368;12.364;2023-04-20T07:21:05;19378.94;;;-141.84;66.05
15260;BME280;34462;51.368;12.364;2023-04-20T07:23:33;19389.09;;;-141.84;65.70
15260;BME280;34462;51.368;12.364;2023-04-20T07:26:01;19405.34;;;-141.84;65.15
15260;BME280;34462;51.368;12.364;2023-04-20T07:28:31;19376.91;;;-141.84;65.13
15260;BME280;34462;51.368;12.364;2023-04-20T07:31:00;19458.19;;;-141.84;64.51
15260;BME280;34462;51.368;12.364;2023-04-20T07:33:28;19431.78;;;-141.84;64.14
15260;BME280;34462;51.368;12.364;2023-04-20T07:35:57;19480.53;;;-141.84;63.33
15260;BME280;34462;51.368;12.364;2023-04-20T07:38:26;19472.41;;;-141.84;62.49
15260;BME280;34462;51.368;12.364;2023-04-20T07:40:54;19484.59;;;-141.84;63.50
15260;BME280;34462;51.368;12.364;2023-04-20T07:43:22;19456.16;;;-141.84;63.78
15260;BME280;34462;51.368;12.364;2023-04-20T07:45:52;19433.81;;;-141.84;64.22
15260;BME280;34462;51.368;12.364;2023-04-20T07:48:20;19443.97;;;-141.84;63.82
15260;BME280;34462;51.368;12.364;2023-04-20T07:50:48;19488.69;;;-141.84;63.53
15260;BME280;34462;51.368;12.364;2023-04-20T07:53:16;19545.56;;;-141.84;62.58
15260;BME280;34462;51.368;12.364;2023-04-20T07:55:44;19549.63;;;-141.84;61.20
15260;BME280;34462;51.368;12.364;2023-04-20T07:58:15;19596.38;;;-141.84;61.03
15260;BME280;34462;51.368;12.364;2023-04-20T08:00:44;19659.38;;;-141.84;60.37
15260;BME280;34462;51.368;12.364;2023-04-20T08:03:14;19657.34;;;-141.84;59.14
15260;BME280;34462;51.368;12.364;2023-04-20T08:05:43;19685.81;;;-141.84;59.05
15260;BME280;34462;51.368;12.364;2023-04-20T08:08:11;19738.66;;;-141.84;58.63
15260;BME280;34462;51.368;12.364;2023-04-20T08:10:39;19714.25;;;-141.84;58.40
15260;BME280;34462;51.368;12.364;2023-04-20T08:13:07;19649.22;;;-141.84;59.40
15260;BME280;34462;51.368;12.364;2023-04-20T08:15:36;19655.31;;;-141.84;59.92
15260;BME280;34462;51.368;12.364;2023-04-20T08:18:04;19626.88;;;-141.84;60.16
15260;BME280;34462;51.368;12.364;2023-04-20T08:20:34;19610.59;;;-141.84;61.07
15260;BME280;34462;51.368;12.364;2023-04-20T08:23:02;19533.38;;;-141.84;61.92
15260;BME280;34462;51.368;12.364;2023-04-20T08:25:30;19515.09;;;-141.84;62.84
15260;BME280;34462;51.368;12.364;2023-04-20T08:27:59;19515.09;;;-141.84;63.47
15260;BME280;34462;51.368;12.364;2023-04-20T08:30:28;19488.69;;;-141.84;64.50
15260;BME280;34462;51.368;12.364;2023-04-20T08:32:57;19437.88;;;-141.84;64.46
15260;BME280;34462;51.368;12.364;2023-04-20T08:35:26;19468.34;;;-141.84;64.44
15260;BME280;34462;51.368;12.364;2023-04-20T08:37:55;19478.50;;;-141.84;64.22
15260;BME280;34462;51.368;12.364;2023-04-20T08:40:23;19513.06;;;-141.84;63.51
15260;BME280;34462;51.368;12.364;2023-04-20T08:42:55;19496.81;;;-141.84;63.74
15260;BME280;34462;51.368;12.364;2023-04-20T08:45:23;19492.75;;;-141.84;63.42
15260;BME280;34462;51.368;12.364;2023-04-20T08:47:52;19517.13;;;-141.84;63.51
15260;BME280;34462;51.368;12.364;2023-04-20T08:50:20;19529.31;;;-141.84;63.62
15260;BME280;34462;51.368;12.364;2023-04-20T08:52:49;19563.88;;;-141.84;62.37
15260;BME280;34462;51.368;12.364;2023-04-20T08:55:18;19561.84;;;-141.84;61.60
15260;BME280;34462;51.368;12.364;2023-04-20T08:57:47;19549.63;;;-141.84;61.78
15260;BME280;34462;51.368;12.364;2023-04-20T09:00:17;19574.03;;;-141.84;61.76
15260;BME280;34462;51.368;12.364;2023-04-20T09:02:49;19618.75;;;-141.84;61.51
15260;BME280;34462;51.368;12.364;2023-04-20T09:05:25;19614.66;;;-141.84;61.64
15260;BME280;34462;51.368;12.364;2023-04-20T09:07:56;19616.72;;;-141.84;61.49
15260;BME280;34462;51.368;12.364;2023-04-20T09:10:38;19616.72;;;-141.84;61.24
15260;BME280;34462;51.368;12.364;2023-04-20T09:13:07;19606.53;;;-141.84;61.66
15260;BME280;34462;51.368;12.364;2023-04-20T09:15:35;19608.56;;;-141.84;61.41
15260;BME280;34462;51.368;12.364;2023-04-20T09:18:11;19602.47;;;-141.84;61.64
15260;BME280;34462;51.368;12.364;2023-04-20T09:20:41;19643.13;;;-141.84;61.53
15260;BME280;34462;51.368;12.364;2023-04-20T09:23:13;19683.78;;;-141.84;60.41
15260;BME280;34462;51.368;12.364;2023-04-20T09:25:46;19612.63;;;-141.84;60.38
15260;BME280;34462;51.368;12.364;2023-04-20T09:28:16;19665.47;;;-141.84;60.22
15260;BME280;34462;51.368;12.364;2023-04-20T09:30:46;19700.03;;;-141.84;60.33
15260;BME280;34462;51.368;12.364;2023-04-20T09:33:17;19736.59;;;-141.84;58.73
15260;BME280;34462;51.368;12.364;2023-04-20T09:35:46;19828.06;;;-141.84;56.37
15260;BME280;34462;51.368;12.364;2023-04-20T09:38:15;19821.97;;;-141.84;56.64
15260;BME280;34462;51.368;12.364;2023-04-20T09:40:45;19761.00;;;-141.84;58.11
15260;BME280;34462;51.368;12.364;2023-04-20T09:43:18;19704.09;;;-141.84;59.60
15260;BME280;34462;51.368;12.364;2023-04-20T09:45:47;19714.25;;;-141.84;59.98
15260;BME280;34462;51.368;12.364;2023-04-20T09:48:17;19691.91;;;-141.84;59.81
15260;BME280;34462;51.368;12.364;2023-04-20T09:50:47;19714.25;;;-141.84;59.74
15260;BME280;34462;51.368;12.364;2023-04-20T09:53:18;19698.00;;;-141.84;59.61
15260;BME280;34462;51.368;12.364;2023-04-20T09:55:49;19754.91;;;-141.84;58.04
15260;BME280;34462;51.368;12.364;2023-04-20T09:58:18;19803.69;;;-141.84;57.59
15260;BME280;34462;51.368;12.364;2023-04-20T10:00:48;19848.38;;;-141.84;56.30
15260;BME280;34462;51.368;12.364;2023-04-20T10:03:17;19856.53;;;-141.84;55.91
15260;BME280;34462;51.368;12.364;2023-04-20T10:05:46;19838.22;;;-141.84;56.29
15260;BME280;34462;51.368;12.364;2023-04-20T10:08:16;19868.72;;;-141.84;55.91
15260;BME280;34462;51.368;12.364;2023-04-20T10:10:46;19866.69;;;-141.84;56.07
15260;BME280;34462;51.368;12.364;2023-04-20T10:13:16;19935.78;;;-141.84;54.99
15260;BME280;34462;51.368;12.364;2023-04-20T10:15:45;19915.47;;;-141.84;54.31
15260;BME280;34462;51.368;12.364;2023-04-20T10:18:18;19956.09;;;-141.84;53.96
15260;BME280;34462;51.368;12.364;2023-04-20T10:20:51;19947.97;;;-141.84;54.32
15260;BME280;34462;51.368;12.364;2023-04-20T10:23:30;19976.44;;;-141.84;53.95
15260;BME280;34462;51.368;12.364;2023-04-20T10:25:59;19956.09;;;-141.84;54.42
15260;BME280;34462;51.368;12.364;2023-04-20T10:28:39;19978.47;;;-141.84;53.70
15260;BME280;34462;51.368;12.364;2023-04-20T10:31:08;19956.09;;;-141.84;53.74
15260;BME280;34462;51.368;12.364;2023-04-20T10:33:52;19972.38;;;-141.84;53.63
15260;BME280;34462;51.368;12.364;2023-04-20T10:36:27;19988.63;;;-141.84;53.07
15260;BME280;34462;51.368;12.364;2023-04-20T10:38:56;20027.25;;;-141.84;52.25
15260;BME280;34462;51.368;12.364;2023-04-20T10:41:24;20021.16;;;-141.84;51.64
15260;BME280;34462;51.368;12.364;2023-04-20T10:43:54;20063.81;;;-141.84;52.09
15260;BME280;34462;51.368;12.364;2023-04-20T10:46:23;20039.44;;;-141.84;52.21
15260;BME280;34462;51.368;12.364;2023-04-20T10:48:53;20082.13;;;-141.84;51.47
15260;BME280;34462;51.368;12.364;2023-04-20T10:51:23;20088.22;;;-141.84;51.99
15260;BME280;34462;51.368;12.364;2023-04-20T10:54:00;20045.53;;;-141.84;52.56
15260;BME280;34462;51.368;12.364;2023-04-20T10:56:42;20013.00;;;-141.84;52.91
15260;BME280;34462;51.368;12.364;2023-04-20T10:59:13;19992.69;;;-141.84;52.42
15260;BME280;34462;51.368;12.364;2023-04-20T11:01:43;19998.78;;;-141.84;53.32
15260;BME280;34462;51.368;12.364;2023-04-20T11:04:13;19954.06;;;-141.84;53.18
15260;BME280;34462;51.368;12.364;2023-04-20T11:06:46;19933.75;;;-141.84;54.44
15260;BME280;34462;51.368;12.364;2023-04-20T11:09:19;19809.78;;;-141.84;55.90
15260;BME280;34462;51.368;12.364;2023-04-20T11:11:58;19862.63;;;-141.84;55.85
15260;BME280;34462;51.368;12.364;2023-04-20T11:14:32;19854.50;;;-141.84;56.16
15260;BME280;34462;51.368;12.364;2023-04-20T11:17:00;19834.16;;;-141.84;56.30
15260;BME280;34462;51.368;12.364;2023-04-20T11:19:31;19771.16;;;-141.84;57.92
15260;BME280;34462;51.368;12.364;2023-04-20T11:22:00;19777.25;;;-141.84;58.37
15260;BME280;34462;51.368;12.364;2023-04-20T11:24:30;19765.06;;;-141.84;58.18
15260;BME280;34462;51.368;12.364;2023-04-20T11:27:01;19763.03;;;-141.84;58.63
15260;BME280;34462;51.368;12.364;2023-04-20T11:29:34;19793.50;;;-141.84;58.02
15260;BME280;34462;51.368;12.364;2023-04-20T11:32:05;19750.84;;;-141.84;58.92
15260;BME280;34462;51.368;12.364;2023-04-20T11:34:36;19748.81;;;-141.84;59.34
15260;BME280;34462;51.368;12.364;2023-04-20T11:37:06;19742.72;;;-141.84;59.24
15260;BME280;34462;51.368;12.364;2023-04-20T11:39:36;19748.81;;;-141.84;59.13
15260;BME280;34462;51.368;12.364;2023-04-20T11:42:05;19730.50;;;-141.84;59.79
15260;BME280;34462;51.368;12.364;2023-04-20T11:44:34;19724.41;;;-141.84;60.42
15260;BME280;34462;51.368;12.364;2023-04-20T11:47:03;19722.38;;;-141.84;60.24
15260;BME280;34462;51.368;12.364;2023-04-20T11:49:31;19677.66;;;-141.84;60.43
15260;BME280;34462;51.368;12.364;2023-04-20T11:52:00;19706.13;;;-141.84;60.37
15260;BME280;34462;51.368;12.364;2023-04-20T11:54:28;19679.72;;;-141.84;61.31
15260;BME280;34462;51.368;12.364;2023-04-20T11:56:59;19687.84;;;-141.84;61.17
15260;BME280;34462;51.368;12.364;2023-04-20T11:59:28;19653.28;;;-141.84;62.02
15260;BME280;34462;51.368;12.364;2023-04-20T12:01:57;19604.50;;;-141.84;63.00
15260;BME280;34462;51.368;12.364;2023-04-20T12:04:28;19600.44;;;-141.84;63.95
15260;BME280;34462;51.368;12.364;2023-04-20T12:06:57;19616.72;;;-141.84;64.37
15260;BME280;34462;51.368;12.364;2023-04-20T12:09:25;19590.28;;;-141.84;64.10
15260;BME280;34462;51.368;12.364;2023-04-20T12:11:53;19635.00;;;-141.84;63.78
15260;BME280;34462;51.368;12.364;2023-04-20T12:14:21;19655.31;;;-141.84;62.59
15260;BME280;34462;51.368;12.364;2023-04-20T12:16:49;19718.31;;;-141.84;62.11
15260;BME280;34462;51.368;12.364;2023-04-20T12:19:19;19708.16;;;-141.84;61.12
15260;BME280;34462;51.368;12.364;2023-04-20T12:21:47;19752.88;;;-141.84;60.58
15260;BME280;34462;51.368;12.364;2023-04-20T12:24:15;19736.59;;;-141.84;60.52
15260;BME280;34462;51.368;12.364;2023-04-20T12:26:43;19712.22;;;-141.84;60.69
15260;BME280;34462;51.368;12.364;2023-04-20T12:29:11;19750.84;;;-141.84;61.16
15260;BME280;34462;51.368;12.364;2023-04-20T12:31:39;19746.78;;;-141.84;60.99
15260;BME280;34462;51.368;12.364;2023-04-20T12:34:08;19728.47;;;-141.84;61.61
15260;BME280;34462;51.368;12.364;2023-04-20T12:36:38;19732.53;;;-141.84;61.75
15260;BME280;34462;51.368;12.364;2023-04-20T12:39:06;19722.38;;;-141.84;61.85
15260;BME280;34462;51.368;12.364;2023-04-20T12:41:34;19730.50;;;-141.84;62.42